• Join FlightAware (Why Join?)
  • Login
  • US Flag 
04:58AM EDT


 

Airport Tracker/Info


-or-


 

Live Flight TrackerFlight Track Log ✈ ASQ4283 ✈ 01-Jul-2013 ✈ KMLI - KORD

Flight Track Log - Related Links

Times and Time Zones

All times are in EDT time to prevent confusion due to time zone crossing. See the ASQ4283 flight status page for this flight to view local times or setup timezone preferences in your user account.

Time Position Orientation Groundspeed Altitude Reporting Facility
EDT Latitude Longitude Course Direction KTS MPH feet Rate Location/Type
08:22PM 41.4458 -90.3322 91° East 229 264 6,800  Level Chicago Center
08:23PM 41.4444 -90.2353 91° East 259 298 9,600 2,100 Climbing Chicago Center
08:24PM 41.4417 -90.1319 92° East 272 313 11,200 1,200 Climbing Chicago Center
08:25PM 41.4397 -90.0003 91° East 337 388 12,200 1,200 Climbing Chicago Center
08:26PM 41.4334 -89.8610 90° East  Level FlightAware Approximate
08:26PM 41.4381 -89.8661 91° East 357 411 13,800  Level Chicago Center
08:27PM 41.4347 -89.7300 92° East 365 420 15,100 1,140 Climbing Chicago Center
08:28PM 41.4336 -89.5908 91° East 372 428 16,200 900 Climbing Chicago Center
08:29PM 41.4458 -89.4192 85° East 390 449 17,000 360 Climbing Chicago Center
08:30PM 41.4600 -89.2761 82° East 389 448 17,000 -480 Level Chicago Center
08:31PM 41.4711 -89.1453 83° East 383 441 16,100 -1,440 Descending Chicago Center
08:32PM 41.4844 -89.0100 82° East 374 430 14,100 -2,160 Descending Chicago Center
08:33PM 41.4978 -88.8517 84° East 361 415 11,700 -1,500 Descending Chicago Center
08:34PM 41.5097 -88.7275 83° East 342 394 11,000 -300 Descending Chicago Center
08:35PM 41.5406 -88.6350 66° East 277 319 11,100  Climbing Chicago Center
08:36PM 41.5756 -88.5475 62° Northeast 270 311 11,100 -420 Level Chicago Center
08:37PM 41.5925 -88.4511 77° East 267 307 10,300 -1,080 Descending Chicago Center
08:38PM 41.6056 -88.3375 81° East 260 299 8,900 -1,140 Descending Chicago Center
08:39PM 41.6439 -88.2639 55° Northeast 256 295 8,000 -480 Descending Chicago Center
08:40PM 41.6947 -88.2036 42° Northeast 244 281 8,000 -720 Level Chicago Center
08:41PM 41.7428 -88.1472 41° Northeast 232 267 6,600 -1,320 Descending Chicago Center
08:42PM 41.7853 -88.0967 42° Northeast 210 242 5,300 -1,320 Descending Chicago Center
08:44PM 41.8244 -88.0514 41° Northeast 195 224 3,900 -1,140 Descending Chicago Center
08:45PM 41.8631 -88.0058 41° Northeast 190 219 3,000 -960 Descending Chicago Center
08:45PM 41.9000 -87.9667 38° Northeast 129 148 2,100 -780 Descending Chicago TRACON
08:46PM 41.9167 -87.9333 56° Northeast 108 124 1,600 -600 Descending Chicago TRACON
08:48PM 41.9500 -87.9167 20° North 116 133 900 -660 Descending Chicago TRACON
08:50PM 41.9667 -87.9000 37° Northeast  Level FlightAware Approximate